createdAt,value
2022-10-14T00:02:00.623Z,100182.06
2022-10-14T00:07:04.643Z,100185.75
2022-10-14T00:12:07.390Z,100184.88
2022-10-14T00:17:10.002Z,100189.16
2022-10-14T00:22:14.063Z,100186.72
2022-10-14T00:27:16.724Z,100195.69
2022-10-14T00:32:19.396Z,100195.19
2022-10-14T00:37:23.819Z,100199.94
2022-10-14T00:42:26.727Z,100196.41
2022-10-14T00:47:30.644Z,100190.38
2022-10-14T00:52:35.639Z,100193.91
2022-10-14T00:57:39.814Z,100190.50
2022-10-14T01:02:44.140Z,100196.03
2022-10-14T01:07:58.559Z,100187.28
2022-10-14T01:13:09.084Z,100180.31
2022-10-14T01:18:20.147Z,100185.94
2022-10-14T01:23:44.390Z,100176.34
2022-10-14T01:28:55.947Z,100181.88
2022-10-14T01:34:03.515Z,100178.78
2022-10-14T01:39:14.879Z,100180.00
2022-10-14T01:44:22.122Z,100174.00
2022-10-14T01:49:30.320Z,100180.47
2022-10-14T01:54:36.528Z,100180.69
2022-10-14T01:59:41.673Z,100171.84
2022-10-14T02:04:45.800Z,100170.25
2022-10-14T02:09:58.608Z,100168.53
2022-10-14T02:15:17.347Z,100158.81
2022-10-14T02:20:28.452Z,100161.84
2022-10-14T02:25:35.292Z,100150.34
2022-10-14T02:30:41.530Z,100147.97
2022-10-14T02:35:46.378Z,100143.69
2022-10-14T02:40:51.685Z,100145.63
2022-10-14T02:45:59.146Z,100137.78
2022-10-14T02:51:03.326Z,100137.03
2022-10-14T02:56:06.489Z,100134.31
2022-10-14T03:01:10.644Z,100134.47
2022-10-14T03:06:16.039Z,100132.97
2022-10-14T03:11:18.880Z,100130.50
2022-10-14T03:16:21.818Z,100129.78
2022-10-14T03:21:26.076Z,100123.63
2022-10-14T03:26:29.682Z,100120.19
2022-10-14T03:31:33.109Z,100122.25
2022-10-14T03:36:55.936Z,100115.78
2022-10-14T03:42:00.962Z,100125.94
2022-10-14T03:47:10.906Z,100119.91
2022-10-14T03:52:15.704Z,100113.78
2022-10-14T03:57:20.120Z,100117.56
2022-10-14T04:02:27.445Z,100117.66
2022-10-14T04:07:34.537Z,100105.16
2022-10-14T04:12:37.284Z,100096.44
2022-10-14T04:17:44.726Z,100097.41
2022-10-14T04:22:51.679Z,100090.44
2022-10-14T04:27:56.029Z,100092.38
2022-10-14T04:33:06.948Z,100094.47
2022-10-14T04:38:11.531Z,100088.31
2022-10-14T04:43:25.074Z,100097.38
2022-10-14T04:48:28.797Z,100092.06
2022-10-14T04:53:33.745Z,100087.78
2022-10-14T04:58:45.199Z,100082.47
2022-10-14T05:03:48.277Z,100088.00
2022-10-14T05:08:53.719Z,100084.56
2022-10-14T05:13:56.441Z,100074.88
2022-10-14T05:19:02.496Z,100074.13
2022-10-14T05:24:08.769Z,100069.81
2022-10-14T05:29:14.641Z,100069.94
2022-10-14T05:34:17.425Z,100061.97
2022-10-14T05:39:22.331Z,100057.66
2022-10-14T05:44:25.069Z,100067.56
2022-10-14T05:49:28.561Z,100066.84
2022-10-14T05:54:34.882Z,100059.84
2022-10-14T05:59:39.675Z,100063.50
2022-10-14T06:04:43.272Z,100081.63
2022-10-14T06:09:47.976Z,100079.06
2022-10-14T06:14:50.770Z,100089.91
2022-10-14T06:19:53.421Z,100089.19
2022-10-14T06:25:01.739Z,100091.03
2022-10-14T06:30:07.683Z,100090.28
2022-10-14T06:35:10.886Z,100091.22
2022-10-14T06:40:14.948Z,100089.53
2022-10-14T06:45:17.664Z,100094.91
2022-10-14T06:50:20.470Z,100097.59
2022-10-14T06:55:24.445Z,100105.69
2022-10-14T07:00:27.074Z,100100.28
2022-10-14T07:05:29.727Z,100103.97
2022-10-14T07:10:33.728Z,100108.38
2022-10-14T07:15:38.266Z,100110.22
2022-10-14T07:20:40.995Z,100115.59
2022-10-14T07:25:45.407Z,100115.84
2022-10-14T07:30:57.849Z,100111.31
2022-10-14T07:36:02.736Z,100114.88
2022-10-14T07:41:16.667Z,100105.94
2022-10-14T07:46:28.925Z,100110.47
2022-10-14T07:51:31.855Z,100110.78
2022-10-14T07:56:36.562Z,100110.59
2022-10-14T08:01:39.276Z,100119.09
2022-10-14T08:06:42.339Z,100117.19
2022-10-14T08:11:46.686Z,100112.44
2022-10-14T08:16:49.410Z,100113.91
2022-10-14T08:21:53.293Z,100099.50
2022-10-14T08:27:00.560Z,100100.25
2022-10-14T08:32:03.308Z,100094.75
2022-10-14T08:37:06.079Z,100091.84
2022-10-14T08:42:32.285Z,100093.78
2022-10-14T08:47:38.542Z,100092.81
2022-10-14T08:52:49.202Z,100103.25
2022-10-14T08:57:58.615Z,100095.84
2022-10-14T09:03:12.405Z,100096.69
2022-10-14T09:08:18.033Z,100103.47
2022-10-14T09:13:31.108Z,100104.31
2022-10-14T09:18:37.700Z,100100.53
2022-10-14T09:23:40.360Z,100099.50
2022-10-14T09:28:46.176Z,100098.88
2022-10-14T09:33:48.863Z,100095.75
2022-10-14T09:38:53.859Z,100083.81
2022-10-14T09:44:22.547Z,100080.78
2022-10-14T09:49:36.593Z,100077.88
2022-10-14T09:54:39.353Z,100071.19
2022-10-14T09:59:53.817Z,100074.53
2022-10-14T10:04:57.284Z,100066.88
2022-10-14T10:10:02.235Z,100063.09
2022-10-14T10:15:07.626Z,100061.94
2022-10-14T10:20:28.186Z,100052.56
2022-10-14T10:25:31.328Z,100052.34
2022-10-14T10:30:43.742Z,100046.84
2022-10-14T10:36:13.273Z,100053.63
2022-10-14T10:41:30.657Z,100052.53
2022-10-14T10:46:52.376Z,100041.56
2022-10-14T10:52:08.600Z,100036.19
2022-10-14T10:57:30.410Z,100036.19
2022-10-14T11:02:55.899Z,100025.84
2022-10-14T11:08:22.641Z,100024.53
2022-10-14T11:13:35.868Z,100023.31
2022-10-14T11:18:48.176Z,100016.84
2022-10-14T11:24:02.004Z,100011.00
2022-10-14T11:29:16.050Z,100006.34
2022-10-14T11:34:37.856Z,99999.44
2022-10-14T11:39:48.228Z,99992.94
2022-10-14T11:45:05.544Z,99985.63
2022-10-14T11:50:17.408Z,99979.53
2022-10-14T11:55:24.408Z,99972.81
2022-10-14T12:01:16.947Z,99967.66
2022-10-14T12:06:26.138Z,99961.47
2022-10-14T12:11:34.047Z,99958.28
2022-10-14T12:16:41.836Z,99949.88
2022-10-14T12:21:55.946Z,99942.78
2022-10-14T12:27:04.969Z,99935.75
2022-10-14T12:32:19.510Z,99931.69
2022-10-14T12:37:49.968Z,99928.19
2022-10-14T12:42:59.376Z,99918.88
2022-10-14T12:48:06.032Z,99919.31
2022-10-14T12:53:22.328Z,99910.06
2022-10-14T12:58:31.451Z,99897.84
2022-10-14T13:03:42.159Z,99899.09
2022-10-14T13:09:33.128Z,99900.94
2022-10-14T13:14:59.127Z,99897.91
2022-10-14T13:20:04.399Z,99900.63
2022-10-14T13:25:19.306Z,99885.94
2022-10-14T13:30:34.213Z,99877.00
2022-10-14T13:35:49.595Z,99857.41
2022-10-14T13:40:54.126Z,99860.97
2022-10-14T13:46:04.322Z,99860.69
2022-10-14T13:51:36.643Z,99856.91
2022-10-14T13:56:40.235Z,99857.84
2022-10-14T14:01:44.456Z,99851.03
2022-10-14T14:07:03.117Z,99848.44
2022-10-14T14:12:14.369Z,99846.00
2022-10-14T14:17:20.766Z,99846.84
2022-10-14T14:22:28.159Z,99848.56
2022-10-14T14:27:30.849Z,99842.19
2022-10-14T14:32:37.392Z,99851.38
2022-10-14T14:37:55.151Z,99844.38
2022-10-14T14:43:01.461Z,99837.28
2022-10-14T14:48:08.758Z,99829.31
2022-10-14T14:53:15.170Z,99822.34
2022-10-14T14:58:25.508Z,99815.34
2022-10-14T15:03:32.973Z,99812.78
2022-10-14T15:08:37.967Z,99805.56
2022-10-14T15:13:48.543Z,99788.72
2022-10-14T15:19:34.226Z,99795.06
2022-10-14T15:25:09.106Z,99805.66
2022-10-14T15:30:23.900Z,99798.66
2022-10-14T15:35:29.346Z,99798.66
2022-10-14T15:40:34.051Z,99792.66
2022-10-14T15:45:37.974Z,99782.97
2022-10-14T15:50:45.748Z,99782.34
2022-10-14T15:55:48.446Z,99771.97
2022-10-14T16:00:51.126Z,99770.13
2022-10-14T16:05:55.254Z,99773.06
2022-10-14T16:10:59.085Z,99769.88
2022-10-14T16:16:06.705Z,99759.00
2022-10-14T16:21:16.206Z,99749.16
2022-10-14T16:26:18.829Z,99744.38
2022-10-14T16:31:22.372Z,99748.19
2022-10-14T16:36:30.991Z,99740.44
2022-10-14T16:41:33.771Z,99735.00
2022-10-14T16:46:53.911Z,99732.66
2022-10-14T16:51:58.006Z,99739.38
2022-10-14T16:57:04.064Z,99756.50
2022-10-14T17:02:10.533Z,99756.56
2022-10-14T17:07:17.234Z,99770.44
2022-10-14T17:12:19.850Z,99767.44
2022-10-14T17:17:23.707Z,99766.06
2022-10-14T17:22:28.317Z,99764.69
2022-10-14T17:27:30.995Z,99753.63
2022-10-14T17:32:33.606Z,99753.34
2022-10-14T17:37:37.592Z,99753.09
2022-10-14T17:42:40.467Z,99751.97
2022-10-14T17:47:43.074Z,99764.94
2022-10-14T17:52:47.266Z,99749.88
2022-10-14T17:57:50.097Z,99742.50
2022-10-14T18:02:52.694Z,99740.63
2022-10-14T18:07:56.661Z,99724.03
2022-10-14T18:12:59.336Z,99712.13
2022-10-14T18:18:01.977Z,99709.81
2022-10-14T18:23:07.526Z,99713.97
2022-10-14T18:28:10.440Z,99716.16
2022-10-14T18:33:13.279Z,99708.06
2022-10-14T18:38:17.639Z,99702.88
2022-10-14T18:43:20.356Z,99699.97
2022-10-14T18:48:23.445Z,99690.19
2022-10-14T18:53:28.185Z,99683.78
2022-10-14T18:58:31.017Z,99687.06
2022-10-14T19:03:34.851Z,99683.22
2022-10-14T19:08:40.854Z,99674.59
2022-10-14T19:13:45.148Z,99662.91
2022-10-14T19:18:48.367Z,99656.97
2022-10-14T19:23:52.526Z,99650.59
2022-10-14T19:28:55.198Z,99648.13
2022-10-14T19:34:00.720Z,99642.47
2022-10-14T19:39:06.932Z,99629.66
2022-10-14T19:44:10.443Z,99636.78
2022-10-14T19:49:14.738Z,99627.09
2022-10-14T19:54:19.127Z,99612.34
2022-10-14T19:59:21.931Z,99600.53
2022-10-14T20:04:26.670Z,99589.97
2022-10-14T20:09:31.637Z,99579.00
2022-10-14T20:14:34.277Z,99588.97
2022-10-14T20:19:37.623Z,99579.91
2022-10-14T20:24:41.635Z,99572.06
2022-10-14T20:29:44.381Z,99571.63
2022-10-14T20:34:47.928Z,99567.34
2022-10-14T20:39:53.824Z,99563.94
2022-10-14T20:44:56.668Z,99568.50
2022-10-14T20:49:59.462Z,99564.53
2022-10-14T20:55:03.588Z,99561.84
2022-10-14T21:00:10.937Z,99555.28
2022-10-14T21:05:13.559Z,99560.25
2022-10-14T21:10:17.599Z,99542.91
2022-10-14T21:15:20.366Z,99550.16
2022-10-14T21:20:23.183Z,99545.19
2022-10-14T21:25:27.360Z,99536.47
2022-10-14T21:30:30.117Z,99530.38
2022-10-14T21:35:32.956Z,99527.09
2022-10-14T21:40:36.929Z,99519.97
2022-10-14T21:45:39.582Z,99520.97
2022-10-14T21:50:42.766Z,99509.59
2022-10-14T21:55:52.846Z,99509.00
2022-10-14T22:01:01.987Z,99502.03
2022-10-14T22:06:07.832Z,99496.06
2022-10-14T22:11:18.683Z,99485.41
2022-10-14T22:16:21.994Z,99488.94
2022-10-14T22:21:26.832Z,99486.53
2022-10-14T22:26:32.062Z,99483.00
2022-10-14T22:31:35.715Z,99476.97
2022-10-14T22:36:38.997Z,99479.66
2022-10-14T22:41:43.372Z,99461.75
2022-10-14T22:46:47.040Z,99466.44
2022-10-14T22:51:51.945Z,99460.91
2022-10-14T22:56:57.415Z,99460.19
2022-10-14T23:02:00.083Z,99451.22
2022-10-14T23:07:06.137Z,99461.88
2022-10-14T23:12:11.133Z,99455.63
2022-10-14T23:17:14.210Z,99461.31
2022-10-14T23:22:17.034Z,99452.47
2022-10-14T23:27:21.000Z,99450.09
2022-10-14T23:32:23.697Z,99431.75
2022-10-14T23:37:26.350Z,99436.44
2022-10-14T23:42:30.473Z,99436.19
2022-10-14T23:47:33.183Z,99437.63
2022-10-14T23:52:35.885Z,99431.75
2022-10-14T23:57:40.228Z,99437.47
